Troy, South Carolina
Current Conditions -  °F | °C
As of 1:56 PM on Thursday 30 Oct 2014 (Local Time) from KGRD Reporting Station
Clear Clear  
Wind Chill: 68°   Ceiling: Unl
Heat Index: 68°   Visibility: 10mi
Dew Point: 40°   Wind: 7mph
Humidity: 36%   Direction: 30°NNE
Pressure: 30.02"   Gusts: NA
Location:  33.99°N, 82.3°W
Report Text: KGRD 301756Z AUTO 03006KT 10SM CLR 20/04 A3002 RMK AO2 SLP162 T02000044 10200 20072 58023
Loading
Personal Weather Stations






























Interactive Weather Map
Tropical Storm Tracking
New forecast layout! Learn more

10-Day Weather Forecast

Advertisements
Track Severe Weather on mobile